Time;durP1;ratioP1;P1;durP2;ratioP2;P2;SDS_P1;SDS_P2;PMS_P1;PMS_P2;Temp;Humidity;BMP_temperature;BMP_pressure;BME280_temperature;BME280_humidity;BME280_pressure;Samples;Min_cycle;Max_cycle;Signal;HPM_P1;HPM_P2
2023/12/09 00:00:09;;;;;;;9.60;8.60;;;8.10;1.00;;;;;;5115687;28;20179;-44
2023/12/09 00:02:35;;;;;;;12.87;9.20;;;8.00;1.00;;;;;;5115458;28;20476;-42
2023/12/09 00:05:02;;;;;;;11.73;9.30;;;8.00;1.00;;;;;;5116246;28;20417;-41
2023/12/09 00:07:28;;;;;;;12.73;9.47;;;8.00;1.00;;;;;;5117772;28;20475;-44
2023/12/09 00:09:53;;;;;;;10.33;9.27;;;8.00;1.00;;;;;;5117350;28;20497;-43
2023/12/09 00:12:19;;;;;;;11.50;8.87;;;8.00;1.00;;;;;;5081928;28;20172;-44
2023/12/09 00:14:45;;;;;;;10.73;8.00;;;7.90;1.00;;;;;;5117265;28;20175;-45
2023/12/09 00:17:10;;;;;;;10.13;8.87;;;7.90;1.00;;;;;;5116406;28;20277;-43
2023/12/09 00:19:36;;;;;;;9.97;9.07;;;7.90;1.00;;;;;;5115259;28;20183;-41
2023/12/09 00:22:02;;;;;;;10.33;9.33;;;7.90;1.00;;;;;;5115551;28;20180;-44
2023/12/09 00:24:27;;;;;;;9.30;8.40;;;7.90;1.00;;;;;;5116969;28;20557;-42
2023/12/09 00:26:53;;;;;;;11.57;9.33;;;7.90;1.00;;;;;;5117166;28;20511;-43
2023/12/09 00:29:18;;;;;;;10.43;8.77;;;7.90;1.00;;;;;;5117084;28;20263;-42
2023/12/09 00:31:44;;;;;;;10.50;9.40;;;7.90;1.00;;;;;;5116582;28;20231;-42
2023/12/09 00:34:10;;;;;;;13.10;9.90;;;7.80;1.00;;;;;;5098424;28;20231;-43
2023/12/09 00:36:35;;;;;;;10.47;7.47;;;7.80;1.00;;;;;;5115248;28;20267;-46
2023/12/09 00:39:02;;;;;;;14.27;7.10;;;8.40;1.00;;;;;;5113927;28;20265;-47
2023/12/09 00:41:28;;;;;;;21.90;8.10;;;10.30;1.00;;;;;;5117418;28;20432;-41
2023/12/09 00:43:53;;;;;;;10.40;7.43;;;11.30;1.00;;;;;;5101626;28;20471;-41
2023/12/09 00:46:21;;;;;;;10.73;9.60;;;11.70;1.00;;;;;;5120045;28;20593;-40
2023/12/09 00:48:46;;;;;;;11.80;7.90;;;11.50;1.00;;;;;;5120692;28;20553;-42
2023/12/09 00:51:13;;;;;;;9.13;8.23;;;11.10;1.00;;;;;;5120148;28;20476;-41
2023/12/09 00:53:39;;;;;;;9.77;8.50;;;10.60;1.00;;;;;;5086106;28;20435;-42
2023/12/09 00:56:05;;;;;;;9.87;8.40;;;10.20;99.90;;;;;;5119733;28;20531;-41
2023/12/09 00:58:30;;;;;;;9.47;8.53;;;9.80;99.90;;;;;;5119794;28;20275;-45
2023/12/09 01:00:56;;;;;;;9.63;8.63;;;9.50;99.90;;;;;;5119696;28;20520;-43
2023/12/09 01:03:21;;;;;;;9.87;8.83;;;9.20;99.90;;;;;;5100940;28;20184;-41
2023/12/09 01:05:47;;;;;;;11.97;8.27;;;9.00;99.90;;;;;;5118334;28;20203;-42
2023/12/09 01:08:12;;;;;;;11.47;8.50;;;8.80;99.90;;;;;;5119057;28;20207;-43
2023/12/09 01:10:38;;;;;;;13.00;10.23;;;8.60;26.20;;;;;;5119257;28;20206;-44
2023/12/09 01:13:04;;;;;;;10.60;8.97;;;8.50;1.00;;;;;;5119988;28;20176;-43
2023/12/09 01:15:29;;;;;;;10.63;9.00;;;8.30;1.00;;;;;;5119714;28;20187;-41
2023/12/09 01:17:55;;;;;;;11.37;8.83;;;8.30;1.00;;;;;;5120033;28;20179;-44
2023/12/09 01:20:21;;;;;;;10.00;9.00;;;8.20;1.00;;;;;;5120433;28;20240;-41
2023/12/09 01:22:47;;;;;;;10.10;8.77;;;8.10;1.00;;;;;;5120171;28;20426;-41
2023/12/09 01:25:12;;;;;;;9.83;8.80;;;8.00;1.00;;;;;;5085605;28;20195;-49
2023/12/09 01:27:38;;;;;;;10.20;9.13;;;8.00;1.00;;;;;;5102227;28;20596;-42
2023/12/09 01:30:05;;;;;;;11.53;7.80;;;7.90;1.00;;;;;;5119680;28;20171;-41
2023/12/09 01:32:31;;;;;;;10.20;8.40;;;7.90;1.00;;;;;;5119334;28;20279;-42
2023/12/09 01:34:57;;;;;;;9.67;8.50;;;7.90;1.00;;;;;;5117860;28;20575;-41
2023/12/09 01:37:22;;;;;;;11.37;8.30;;;7.90;1.00;;;;;;5118609;28;20188;-43
2023/12/09 01:39:48;;;;;;;9.93;8.40;;;7.90;1.00;;;;;;5117699;28;20440;-45
2023/12/09 01:42:13;;;;;;;11.57;8.70;;;7.90;1.00;;;;;;5099695;28;20180;-42
2023/12/09 01:44:39;;;;;;;10.63;8.40;;;7.80;1.00;;;;;;5098969;28;20175;-40
2023/12/09 01:47:06;;;;;;;9.77;8.67;;;7.80;1.00;;;;;;5117170;28;20246;-41
2023/12/09 01:49:32;;;;;;;10.27;8.93;;;7.80;1.00;;;;;;5119062;28;20288;-43
2023/12/09 01:51:59;;;;;;;13.80;8.70;;;7.80;1.00;;;;;;5117432;28;20421;-41
2023/12/09 01:54:25;;;;;;;10.43;8.10;;;7.80;1.00;;;;;;5116931;28;20699;-41
2023/12/09 01:56:50;;;;;;;10.47;7.90;;;7.80;1.00;;;;;;5083046;28;20516;-43
2023/12/09 01:59:16;;;;;;;9.47;7.90;;;7.80;1.00;;;;;;5099921;28;20483;-43
2023/12/09 02:01:43;;;;;;;10.83;8.23;;;7.80;1.00;;;;;;5116937;28;20192;-43
2023/12/09 02:04:09;;;;;;;10.50;7.87;;;7.80;1.00;;;;;;5097882;28;20244;-45
2023/12/09 02:06:34;;;;;;;9.03;7.37;;;7.80;1.00;;;;;;5115604;28;20481;-42
2023/12/09 02:09:00;;;;;;;12.93;8.23;;;7.80;1.00;;;;;;5097727;28;20205;-41
2023/12/09 02:11:31;;;;;;;8.90;7.43;;;7.80;1.00;;;;;;5096727;28;20558;-43
2023/12/09 02:13:59;;;;;;;9.20;7.67;;;7.80;1.00;;;;;;5115522;28;20203;-42
2023/12/09 02:16:56;;;;;;;8.80;7.60;;;7.80;1.00;;;;;;5099578;28;20421;-43
2023/12/09 02:19:21;;;;;;;9.10;7.83;;;7.80;1.00;;;;;;5113623;28;20441;-42
2023/12/09 02:22:05;;;;;;;9.20;7.70;;;7.80;1.00;;;;;;5100314;28;20497;-43
2023/12/09 02:24:31;;;;;;;8.40;7.60;;;7.80;1.00;;;;;;5101063;28;20183;-43
2023/12/09 02:27:11;;;;;;;8.10;7.00;;;7.80;1.00;;;;;;5118715;28;20496;-41
2023/12/09 02:29:53;;;;;;;8.93;8.03;;;7.80;1.00;;;;;;5117790;28;20410;-41
2023/12/09 02:32:21;;;;;;;9.40;8.30;;;7.80;1.00;;;;;;5100594;28;20421;-44
2023/12/09 02:34:47;;;;;;;10.17;7.83;;;7.80;1.00;;;;;;5100260;28;20477;-41
2023/12/09 02:37:12;;;;;;;8.67;7.43;;;7.80;1.00;;;;;;5100515;28;20483;-42
2023/12/09 02:39:38;;;;;;;9.03;7.87;;;7.80;1.00;;;;;;5099993;28;20195;-45
2023/12/09 02:42:05;;;;;;;7.80;6.77;;;7.90;1.00;;;;;;5099258;28;20194;-43
2023/12/09 02:44:31;;;;;;;8.97;7.37;;;7.80;1.00;;;;;;5116136;28;20919;-42
2023/12/09 02:46:57;;;;;;;12.73;7.27;;;7.70;1.00;;;;;;5115590;28;20504;-42
2023/12/09 02:49:23;;;;;;;7.60;6.90;;;7.70;1.00;;;;;;5115796;28;20468;-41
2023/12/09 02:51:49;;;;;;;7.00;6.30;;;7.80;1.00;;;;;;5116324;28;20190;-41
2023/12/09 02:54:14;;;;;;;8.13;6.63;;;7.80;1.00;;;;;;5117027;28;20414;-42
2023/12/09 02:56:40;;;;;;;8.07;6.60;;;7.80;1.00;;;;;;5117059;28;20397;-42
2023/12/09 02:59:06;;;;;;;7.10;6.00;;;7.70;1.00;;;;;;5117516;28;20180;-42
2023/12/09 03:01:31;;;;;;;8.60;6.83;;;7.70;1.00;;;;;;5116963;28;20195;-43
2023/12/09 03:03:57;;;;;;;11.80;6.97;;;7.80;1.00;;;;;;5116384;28;20183;-41
2023/12/09 03:06:22;;;;;;;8.33;6.50;;;7.80;1.00;;;;;;5118062;28;20307;-42
2023/12/09 03:08:48;;;;;;;10.13;5.90;;;7.70;1.00;;;;;;5117581;28;20453;-41
2023/12/09 03:11:13;;;;;;;9.37;7.17;;;7.70;1.00;;;;;;5099378;28;20171;-44
2023/12/09 03:13:39;;;;;;;7.53;5.37;;;7.60;1.00;;;;;;5118435;28;20244;-42
2023/12/09 03:16:05;;;;;;;6.57;5.70;;;7.60;1.00;;;;;;5117896;28;20525;-44
2023/12/09 03:18:30;;;;;;;7.60;5.60;;;7.50;1.00;;;;;;5100133;28;20274;-40
2023/12/09 03:20:56;;;;;;;8.57;6.00;;;7.50;1.00;;;;;;5118152;28;20205;-42
2023/12/09 03:23:22;;;;;;;7.60;5.40;;;7.40;1.00;;;;;;5118069;28;20194;-41
2023/12/09 03:25:48;;;;;;;6.23;4.70;;;7.40;1.00;;;;;;5117432;28;20211;-42
2023/12/09 03:28:14;;;;;;;9.63;5.63;;;7.30;1.00;;;;;;5116729;28;20172;-41
2023/12/09 03:30:40;;;;;;;6.10;5.43;;;7.30;1.00;;;;;;5117666;28;20424;-41
2023/12/09 03:33:05;;;;;;;10.10;5.60;;;7.20;1.00;;;;;;5116998;28;20255;-42
2023/12/09 03:35:31;;;;;;;6.63;4.80;;;7.20;1.00;;;;;;5117326;28;20247;-41
2023/12/09 03:37:57;;;;;;;8.50;6.63;;;7.10;1.00;;;;;;5115860;28;20187;-41
2023/12/09 03:40:23;;;;;;;10.80;5.87;;;7.10;1.00;;;;;;5097417;28;20509;-40
2023/12/09 03:42:48;;;;;;;7.47;5.10;;;7.00;1.00;;;;;;5112491;28;20621;-43
2023/12/09 03:45:14;;;;;;;7.20;5.33;;;7.00;1.00;;;;;;5115183;28;20185;-39
2023/12/09 03:47:39;;;;;;;9.90;5.30;;;7.00;1.00;;;;;;5097122;28;20278;-42
2023/12/09 03:50:05;;;;;;;7.17;5.23;;;7.00;1.00;;;;;;5115016;28;20180;-41
2023/12/09 03:52:31;;;;;;;8.03;5.07;;;6.80;1.00;;;;;;5115722;28;20578;-41
2023/12/09 03:54:57;;;;;;;5.70;4.67;;;6.80;1.00;;;;;;5115522;28;20520;-41
2023/12/09 03:57:23;;;;;;;7.83;5.00;;;6.80;1.00;;;;;;5098080;28;20229;-41
2023/12/09 03:59:48;;;;;;;6.73;4.73;;;6.80;1.00;;;;;;5117214;28;20182;-40
2023/12/09 04:02:14;;;;;;;7.27;4.80;;;6.80;1.00;;;;;;5117233;28;20824;-43
2023/12/09 04:04:41;;;;;;;7.93;5.10;;;6.70;1.00;;;;;;5117600;28;20191;-43
2023/12/09 04:07:07;;;;;;;6.40;4.90;;;6.70;1.40;;;;;;5081391;28;20526;-41
2023/12/09 04:09:32;;;;;;;7.37;4.63;;;6.70;1.00;;;;;;5117343;28;20421;-42
2023/12/09 04:11:58;;;;;;;5.30;4.67;;;6.70;1.00;;;;;;5117370;28;20420;-41
2023/12/09 04:14:23;;;;;;;7.60;5.20;;;6.70;1.00;;;;;;5100213;28;20228;-42
2023/12/09 04:16:49;;;;;;;8.10;4.37;;;6.70;4.50;;;;;;5102790;28;20206;-41
2023/12/09 04:19:15;;;;;;;7.07;5.17;;;6.70;7.40;;;;;;5121045;28;20184;-40
2023/12/09 04:21:41;;;;;;;7.50;4.90;;;6.70;6.70;;;;;;5121043;28;20198;-41
2023/12/09 04:24:07;;;;;;;6.00;5.20;;;6.70;13.60;;;;;;5119523;28;20417;-48
2023/12/09 04:26:32;;;;;;;7.33;5.50;;;6.70;16.70;;;;;;5119052;28;20222;-40
2023/12/09 04:28:58;;;;;;;6.07;4.63;;;6.70;21.10;;;;;;5101633;28;20183;-48
2023/12/09 04:31:23;;;;;;;6.63;5.60;;;6.70;30.50;;;;;;5118915;28;20546;-40
2023/12/09 04:33:50;;;;;;;6.63;5.37;;;6.80;41.50;;;;;;5119866;28;20207;-40
2023/12/09 04:36:15;;;;;;;8.63;6.43;;;6.80;48.60;;;;;;5119307;28;20168;-42
2023/12/09 04:38:41;;;;;;;7.70;5.87;;;6.80;57.80;;;;;;5119308;28;20509;-41
2023/12/09 04:41:06;;;;;;;6.50;4.97;;;6.80;82.20;;;;;;5120161;28;20179;-42
2023/12/09 04:43:32;;;;;;;7.57;5.50;;;6.80;91.10;;;;;;5120215;28;20186;-42
2023/12/09 04:45:58;;;;;;;7.27;5.30;;;6.80;95.30;;;;;;5120801;28;20293;-40
2023/12/09 04:48:25;;;;;;;7.77;6.90;;;6.80;99.90;;;;;;5120369;28;20163;-42
2023/12/09 04:50:50;;;;;;;5.70;4.70;;;6.80;99.90;;;;;;5121040;28;20263;-40
2023/12/09 04:53:16;;;;;;;8.90;5.40;;;6.80;99.90;;;;;;5121221;28;20478;-42
2023/12/09 04:55:41;;;;;;;6.63;5.10;;;6.80;99.90;;;;;;5102773;28;20367;-41
2023/12/09 04:58:07;;;;;;;5.77;4.60;;;6.80;99.90;;;;;;5120501;28;20184;-43
2023/12/09 05:00:33;;;;;;;6.67;5.23;;;6.80;99.90;;;;;;5119837;28;20270;-40
2023/12/09 05:02:59;;;;;;;5.80;4.90;;;6.80;96.90;;;;;;5120061;28;20176;-43
2023/12/09 05:05:25;;;;;;;7.27;5.40;;;6.90;98.00;;;;;;5118174;28;20475;-40
2023/12/09 05:07:51;;;;;;;7.70;5.07;;;6.80;96.00;;;;;;5118522;28;20278;-41
2023/12/09 05:10:17;;;;;;;8.27;5.20;;;6.70;94.00;;;;;;5119669;28;20436;-42
2023/12/09 05:12:42;;;;;;;6.20;4.70;;;6.90;93.80;;;;;;5084785;28;20190;-41
2023/12/09 05:15:08;;;;;;;8.27;4.80;;;6.90;92.40;;;;;;5119782;28;20180;-41
2023/12/09 05:17:34;;;;;;;6.20;4.67;;;6.90;88.10;;;;;;5101329;28;20217;-45
2023/12/09 05:19:59;;;;;;;5.43;4.30;;;6.90;87.60;;;;;;5101522;28;20437;-44
2023/12/09 05:22:25;;;;;;;7.73;4.43;;;6.80;89.80;;;;;;5118416;28;20231;-42
2023/12/09 05:24:51;;;;;;;5.47;4.10;;;6.90;91.30;;;;;;5101283;28;20184;-40
2023/12/09 05:27:16;;;;;;;6.93;4.60;;;6.90;83.30;;;;;;5117339;28;20207;-43
2023/12/09 05:29:43;;;;;;;5.60;3.90;;;6.80;81.70;;;;;;5117890;28;20224;-41
2023/12/09 05:32:09;;;;;;;6.00;4.17;;;6.80;69.60;;;;;;5117021;28;20180;-41
2023/12/09 05:34:35;;;;;;;5.07;4.57;;;6.90;67.50;;;;;;5081755;28;20901;-40
2023/12/09 05:37:00;;;;;;;11.33;4.87;;;6.90;58.50;;;;;;5117689;28;20410;-42
2023/12/09 05:39:26;;;;;;;6.57;3.67;;;6.80;54.10;;;;;;5117229;28;20473;-44
2023/12/09 05:41:51;;;;;;;8.80;4.37;;;6.90;50.80;;;;;;5117941;28;20192;-41
2023/12/09 05:44:17;;;;;;;4.90;4.30;;;6.90;53.10;;;;;;5118020;28;20275;-40
2023/12/09 05:46:43;;;;;;;4.23;3.60;;;6.90;51.60;;;;;;5099130;28;20274;-40
2023/12/09 05:49:09;;;;;;;7.80;4.13;;;6.90;47.70;;;;;;5099408;28;20172;-40
2023/12/09 05:51:35;;;;;;;4.60;4.20;;;6.80;47.50;;;;;;5119019;28;20255;-41
2023/12/09 05:54:01;;;;;;;6.03;4.10;;;6.90;47.30;;;;;;5118701;28;20514;-40
2023/12/09 05:56:27;;;;;;;4.77;3.87;;;6.90;36.60;;;;;;5118094;28;20769;-40
2023/12/09 05:58:52;;;;;;;6.20;3.67;;;6.80;31.30;;;;;;5118105;28;20218;-42
2023/12/09 06:01:18;;;;;;;6.47;4.83;;;6.90;26.00;;;;;;5117608;28;20457;-40
2023/12/09 06:03:44;;;;;;;6.20;4.37;;;6.90;24.50;;;;;;5117333;28;20528;-42
2023/12/09 06:06:09;;;;;;;5.17;3.70;;;6.90;20.10;;;;;;5117240;28;20215;-45
2023/12/09 06:08:35;;;;;;;6.50;3.67;;;6.80;17.30;;;;;;5099155;28;20183;-44
2023/12/09 06:11:02;;;;;;;4.60;3.17;;;6.80;11.60;;;;;;5117450;28;20541;-40
2023/12/09 06:13:28;;;;;;;6.10;3.23;;;6.80;4.30;;;;;;5117716;28;20179;-42
2023/12/09 06:15:53;;;;;;;4.07;3.67;;;6.80;1.00;;;;;;5116166;28;20860;-40
2023/12/09 06:18:19;;;;;;;5.00;3.77;;;6.80;1.00;;;;;;5096195;28;20219;-42
2023/12/09 06:20:45;;;;;;;4.73;3.70;;;6.90;1.00;;;;;;5115435;28;20251;-41
2023/12/09 06:23:11;;;;;;;4.07;3.27;;;6.80;1.00;;;;;;5119009;28;20210;-40
2023/12/09 06:25:36;;;;;;;4.90;4.07;;;6.90;1.00;;;;;;5096058;28;20199;-40
2023/12/09 06:28:02;;;;;;;7.30;2.70;;;6.90;1.00;;;;;;5112232;28;20463;-41
2023/12/09 06:30:28;;;;;;;5.73;3.67;;;6.80;1.00;;;;;;5098837;28;20192;-40
2023/12/09 06:32:54;;;;;;;7.17;3.63;;;6.90;1.00;;;;;;5116758;28;20437;-40
2023/12/09 06:35:19;;;;;;;4.00;3.10;;;6.90;1.00;;;;;;5117039;28;20501;-41
2023/12/09 06:37:45;;;;;;;4.37;3.20;;;6.80;1.00;;;;;;5101691;28;20264;-41
2023/12/09 06:40:11;;;;;;;3.50;2.90;;;6.90;1.00;;;;;;5097258;28;20187;-42
2023/12/09 06:42:38;;;;;;;3.87;3.20;;;6.90;1.00;;;;;;5062293;28;20184;-45
2023/12/09 06:45:09;;;;;;;6.73;3.43;;;6.90;1.00;;;;;;5095447;28;20437;-41
2023/12/09 06:47:35;;;;;;;3.50;2.90;;;6.90;1.00;;;;;;5097503;28;20641;-40
2023/12/09 06:50:00;;;;;;;3.50;2.50;;;6.90;1.00;;;;;;5096954;28;20529;-41
2023/12/09 06:52:26;;;;;;;3.90;3.50;;;6.90;1.00;;;;;;5096630;28;20177;-40
2023/12/09 06:54:52;;;;;;;9.10;3.40;;;6.90;1.00;;;;;;5094299;28;20524;-40
2023/12/09 06:57:17;;;;;;;5.77;3.60;;;6.90;1.00;;;;;;5094838;28;20168;-41
2023/12/09 06:59:43;;;;;;;4.90;2.53;;;6.90;1.00;;;;;;5094767;28;20353;-43
2023/12/09 07:02:08;;;;;;;3.70;2.90;;;6.90;1.00;;;;;;5093801;28;20475;-40
2023/12/09 07:04:38;;;;;;;6.77;3.50;;;6.90;1.00;;;;;;5094221;28;20188;-40
2023/12/09 07:07:03;;;;;;;6.03;3.20;;;6.90;1.00;;;;;;5093657;28;20212;-42
2023/12/09 07:09:29;;;;;;;5.80;2.40;;;7.00;1.00;;;;;;5093065;28;20733;-43
2023/12/09 07:11:55;;;;;;;5.97;2.93;;;8.90;1.00;;;;;;5091706;28;20491;-41
2023/12/09 07:14:21;;;;;;;3.90;2.77;;;7.00;1.00;;;;;;5092587;28;20501;-43
2023/12/09 07:16:46;;;;;;;5.87;2.90;;;7.00;1.00;;;;;;5094430;28;20188;-43
2023/12/09 07:19:12;;;;;;;6.30;2.60;;;7.00;1.00;;;;;;5093970;28;20577;-41
2023/12/09 07:21:37;;;;;;;2.77;2.27;;;7.00;1.00;;;;;;5093394;28;20251;-42
2023/12/09 07:24:03;;;;;;;4.17;2.47;;;7.00;1.00;;;;;;5095390;28;20181;-41
2023/12/09 07:26:29;;;;;;;4.70;2.20;;;7.10;1.00;;;;;;5094144;28;20333;-41
2023/12/09 07:28:54;;;;;;;4.53;2.40;;;7.10;1.00;;;;;;5092370;28;20419;-42
2023/12/09 07:31:20;;;;;;;4.93;2.73;;;7.20;1.00;;;;;;5094138;28;20256;-42
2023/12/09 07:33:46;;;;;;;3.20;2.40;;;7.20;1.00;;;;;;5095363;28;20180;-41
2023/12/09 07:36:11;;;;;;;7.30;3.03;;;7.20;1.00;;;;;;5095142;28;20535;-41
2023/12/09 07:38:37;;;;;;;4.13;2.50;;;7.20;1.00;;;;;;5094985;28;20447;-43
2023/12/09 07:41:03;;;;;;;3.10;2.37;;;7.30;1.00;;;;;;5095206;28;20233;-43
2023/12/09 07:43:31;;;;;;;4.17;2.50;;;7.40;99.90;;;;;;5092779;28;20891;-41
2023/12/09 07:45:56;;;;;;;3.30;2.50;;;7.40;99.90;;;;;;5091671;28;20477;-42
2023/12/09 07:48:22;;;;;;;4.23;3.17;;;7.40;99.90;;;;;;5073551;28;20808;-45
2023/12/09 07:50:48;;;;;;;3.30;2.43;;;7.40;99.90;;;;;;5093809;28;20180;-41
2023/12/09 07:53:13;;;;;;;4.10;2.50;;;7.50;99.90;;;;;;5092004;28;20187;-41
2023/12/09 07:55:40;;;;;;;3.30;2.67;;;7.50;99.90;;;;;;5092680;28;20550;-43
2023/12/09 07:58:06;;;;;;;3.10;2.33;;;7.50;99.90;;;;;;5076579;28;20514;-41
2023/12/09 08:00:32;;;;;;;4.10;3.20;;;7.50;99.90;;;;;;5095616;28;20534;-44
2023/12/09 08:03:05;;;;;;;5.07;2.93;;;7.60;99.90;;;;;;5095721;28;20508;-42
2023/12/09 08:05:32;;;;;;;4.27;2.67;;;7.70;99.90;;;;;;5060100;28;20539;-41
2023/12/09 08:07:58;;;;;;;3.13;2.20;;;7.70;99.90;;;;;;5094981;28;20454;-43
2023/12/09 08:10:24;;;;;;;4.33;2.73;;;7.70;99.90;;;;;;5075744;28;20476;-43
2023/12/09 08:12:50;;;;;;;4.83;2.57;;;7.70;99.90;;;;;;5094591;28;20466;-43
2023/12/09 08:15:15;;;;;;;4.53;2.30;;;7.70;95.90;;;;;;5094865;28;20189;-43
2023/12/09 08:17:41;;;;;;;4.60;2.43;;;7.70;93.70;;;;;;5093029;28;20198;-41
2023/12/09 08:20:10;;;;;;;4.43;2.70;;;7.80;92.70;;;;;;5092943;28;20234;-48
2023/12/09 08:22:38;;;;;;;4.17;2.73;;;7.80;65.50;;;;;;5092511;28;20242;-43
2023/12/09 08:25:08;;;;;;;3.70;3.07;;;7.80;75.80;;;;;;5093891;28;20493;-41
2023/12/09 08:27:34;;;;;;;3.23;2.30;;;7.80;86.60;;;;;;5092628;28;20462;-41
2023/12/09 08:30:00;;;;;;;4.80;2.80;;;7.90;46.40;;;;;;5091760;28;20456;-42
2023/12/09 08:32:26;;;;;;;3.70;2.67;;;7.90;5.70;;;;;;5093320;28;20492;-41
2023/12/09 08:34:51;;;;;;;7.47;3.00;;;8.00;1.00;;;;;;5091913;28;20228;-41
2023/12/09 08:37:24;;;;;;;3.60;2.60;;;8.10;1.00;;;;;;5091880;28;20249;-41
2023/12/09 08:39:52;;;;;;;3.90;3.17;;;8.10;1.00;;;;;;5089528;28;20602;-41
2023/12/09 08:42:18;;;;;;;4.17;2.70;;;8.20;1.00;;;;;;5090636;28;20463;-43
2023/12/09 08:44:43;;;;;;;3.80;2.70;;;8.10;1.00;;;;;;5091904;28;20759;-43
2023/12/09 08:47:09;;;;;;;5.20;3.13;;;8.10;1.00;;;;;;5093579;28;20204;-42
2023/12/09 08:49:34;;;;;;;3.67;2.60;;;8.20;1.00;;;;;;5094092;28;20449;-41
2023/12/09 08:52:00;;;;;;;5.97;3.87;;;8.30;1.00;;;;;;5093211;28;20188;-44
2023/12/09 08:54:25;;;;;;;7.10;3.10;;;8.40;1.00;;;;;;5094347;28;20285;-42
2023/12/09 08:56:51;;;;;;;4.33;2.60;;;8.50;1.00;;;;;;5094108;28;20502;-43
2023/12/09 08:59:17;;;;;;;4.17;2.80;;;8.60;99.90;;;;;;5094803;28;20183;-42
2023/12/09 09:01:42;;;;;;;3.20;2.70;;;8.80;99.90;;;;;;5076891;28;20176;-43
2023/12/09 09:04:08;;;;;;;3.50;3.17;;;9.00;99.90;;;;;;5097309;28;20184;-42
2023/12/09 09:06:33;;;;;;;5.10;2.67;;;9.20;99.30;;;;;;5097701;28;20601;-43
2023/12/09 09:08:59;;;;;;;4.40;3.50;;;9.50;1.00;;;;;;5079617;28;20458;-40
2023/12/09 09:11:24;;;;;;;5.57;3.67;;;9.80;99.90;;;;;;5095399;28;20191;-44
2023/12/09 09:13:50;;;;;;;6.73;2.40;;;10.10;1.00;;;;;;5094504;28;20168;-41
2023/12/09 09:16:16;;;;;;;4.20;2.60;;;10.20;1.00;;;;;;5093909;28;20208;-43
2023/12/09 09:18:42;;;;;;;4.97;2.50;;;10.30;99.90;;;;;;5095557;28;20453;-43
2023/12/09 09:21:09;;;;;;;4.60;2.93;;;10.30;2.30;;;;;;5094844;28;20426;-41
2023/12/09 09:23:35;;;;;;;5.30;2.93;;;10.30;1.00;;;;;;5096194;28;20180;-42
2023/12/09 09:26:01;;;;;;;6.10;3.30;;;10.20;1.00;;;;;;5095461;28;20566;-43
2023/12/09 09:28:27;;;;;;;6.13;3.30;;;10.00;24.90;;;;;;5096277;28;20437;-43
2023/12/09 09:30:52;;;;;;;7.93;3.90;;;9.90;99.90;;;;;;5094220;28;20820;-43
2023/12/09 09:33:18;;;;;;;4.10;2.30;;;9.90;1.00;;;;;;5095462;28;20184;-42
2023/12/09 09:35:46;;;;;;;6.50;2.63;;;9.90;1.00;;;;;;5076274;28;20236;-43
2023/12/09 09:38:11;;;;;;;6.23;3.47;;;10.00;99.90;;;;;;5094668;28;20173;-41
2023/12/09 09:40:37;;;;;;;3.80;2.90;;;10.20;94.50;;;;;;5095115;28;20425;-40
2023/12/09 09:43:08;;;;;;;4.47;2.80;;;10.40;99.90;;;;;;5094854;28;20195;-42
2023/12/09 09:45:36;;;;;;;5.83;3.13;;;10.50;99.90;;;;;;5096021;28;20208;-42
2023/12/09 09:48:05;;;;;;;3.70;2.53;;;10.50;99.90;;;;;;5097611;28;20434;-42
2023/12/09 09:50:37;;;;;;;2.90;2.33;;;10.60;1.00;;;;;;5097029;28;20414;-43
2023/12/09 09:53:07;;;;;;;5.43;3.07;;;10.50;99.90;;;;;;5077685;28;20407;-42
2023/12/09 09:55:33;;;;;;;4.90;2.90;;;10.60;66.30;;;;;;5096079;28;20410;-42
2023/12/09 09:57:58;;;;;;;3.43;2.90;;;10.60;1.00;;;;;;5096253;28;20414;-43
2023/12/09 10:00:25;;;;;;;3.33;2.83;;;10.80;99.90;;;;;;5096443;28;20442;-43
2023/12/09 10:02:52;;;;;;;5.50;3.37;;;11.10;1.00;;;;;;5079257;28;20420;-42
2023/12/09 10:05:20;;;;;;;5.33;3.00;;;11.40;99.90;;;;;;5097140;28;20483;-42
2023/12/09 10:07:45;;;;;;;4.47;3.30;;;11.60;1.00;;;;;;5097473;28;20215;-41
2023/12/09 10:10:13;;;;;;;6.33;3.00;;;11.70;99.90;;;;;;5078595;28;20739;-42
2023/12/09 10:12:39;;;;;;;4.13;3.03;;;11.70;99.90;;;;;;5079192;28;20465;-43
2023/12/09 10:15:07;;;;;;;3.63;3.00;;;11.70;99.90;;;;;;5097633;28;20450;-42
2023/12/09 10:17:33;;;;;;;3.13;2.73;;;11.50;99.90;;;;;;5079483;28;20199;-42
2023/12/09 10:19:59;;;;;;;5.10;3.00;;;11.40;99.90;;;;;;5080306;28;20402;-42
2023/12/09 10:22:25;;;;;;;4.70;3.30;;;11.40;99.90;;;;;;5097031;28;20426;-42
2023/12/09 10:24:52;;;;;;;3.50;2.77;;;11.40;99.90;;;;;;5097442;28;20678;-41
2023/12/09 10:27:24;;;;;;;3.83;3.10;;;11.40;99.90;;;;;;5097174;28;20924;-42
2023/12/09 10:29:53;;;;;;;4.17;3.10;;;11.40;99.90;;;;;;5094741;28;20696;-40
2023/12/09 10:32:23;;;;;;;4.80;3.20;;;11.40;99.90;;;;;;5076453;28;20479;-42
2023/12/09 10:34:50;;;;;;;5.30;3.50;;;11.40;99.90;;;;;;5075026;28;21242;-45
2023/12/09 10:37:17;;;;;;;4.10;2.87;;;11.50;99.90;;;;;;5090973;28;20505;-40
2023/12/09 10:39:47;;;;;;;4.20;3.40;;;11.60;99.90;;;;;;5075372;28;20431;-42
2023/12/09 10:42:13;;;;;;;4.60;2.67;;;11.70;99.90;;;;;;5075787;28;20431;-41
2023/12/09 10:44:39;;;;;;;4.27;2.97;;;11.40;99.90;;;;;;5074281;28;20438;-43
2023/12/09 10:47:05;;;;;;;6.80;3.73;;;11.90;99.90;;;;;;5074870;28;20557;-43
2023/12/09 10:49:31;;;;;;;3.80;3.00;;;11.90;64.60;;;;;;5073340;28;20439;-42
2023/12/09 10:51:57;;;;;;;3.57;3.07;;;11.90;70.40;;;;;;5073142;28;20492;-41
2023/12/09 10:54:22;;;;;;;7.03;4.03;;;11.80;83.10;;;;;;5074967;28;20427;-42
2023/12/09 10:56:49;;;;;;;5.00;3.30;;;11.80;92.30;;;;;;5074997;28;20246;-44
2023/12/09 10:59:17;;;;;;;5.63;3.30;;;11.70;99.90;;;;;;5071874;28;20177;-46
2023/12/09 11:01:46;;;;;;;8.83;3.10;;;11.70;1.00;;;;;;5074098;28;20415;-44
2023/12/09 11:04:13;;;;;;;4.47;2.50;;;12.40;17.20;;;;;;5076330;28;20438;-45
2023/12/09 11:06:39;;;;;;;4.10;2.60;;;13.20;99.90;;;;;;5075542;28;20467;-48
2023/12/09 11:09:06;;;;;;;6.10;2.50;;;13.90;93.60;;;;;;5089166;28;20869;-45
2023/12/09 11:11:31;;;;;;;8.40;2.30;;;14.60;1.00;;;;;;5073626;28;20595;-45
2023/12/09 11:13:58;;;;;;;3.70;2.70;;;15.30;90.90;;;;;;5073704;28;20411;-46
2023/12/09 11:16:27;;;;;;;5.60;2.50;;;16.00;99.90;;;;;;5072427;28;20327;-44
2023/12/09 11:18:53;;;;;;;3.77;2.50;;;16.50;1.00;;;;;;5073947;28;20439;-47
2023/12/09 11:21:22;;;;;;;4.20;2.67;;;16.90;99.90;;;;;;5075375;28;20929;-46
2023/12/09 11:23:50;;;;;;;3.83;3.20;;;17.00;1.00;;;;;;5072936;28;20814;-47
2023/12/09 11:26:36;;;;;;;3.80;3.33;;;16.90;99.90;;;;;;5071210;28;20455;-45
2023/12/09 11:29:09;;;;;;;4.77;3.20;;;16.80;99.90;;;;;;5074074;28;20423;-44
2023/12/09 11:31:40;;;;;;;4.67;3.60;;;16.50;1.00;;;;;;5074291;28;20419;-44
2023/12/09 11:34:08;;;;;;;4.10;3.40;;;16.20;99.90;;;;;;5077368;28;20508;-45
2023/12/09 11:36:41;;;;;;;3.23;2.83;;;15.90;99.90;;;;;;5092680;28;20814;-45
2023/12/09 11:39:09;;;;;;;4.30;2.90;;;15.60;1.00;;;;;;5090975;28;20535;-42
2023/12/09 11:41:36;;;;;;;6.97;2.77;;;15.30;99.90;;;;;;5075737;28;20828;-46
2023/12/09 11:44:03;;;;;;;2.93;2.50;;;15.00;1.00;;;;;;5092813;28;20832;-47
2023/12/09 11:46:32;;;;;;;3.87;2.47;;;14.90;1.00;;;;;;5092515;28;20485;-46
2023/12/09 11:48:59;;;;;;;3.40;2.17;;;14.80;1.00;;;;;;5092004;28;20577;-42
2023/12/09 11:51:26;;;;;;;3.90;3.00;;;14.70;1.00;;;;;;5093956;28;20429;-42
2023/12/09 11:53:57;;;;;;;5.13;2.60;;;14.80;1.00;;;;;;5076452;28;20843;-45
2023/12/09 11:56:23;;;;;;;3.60;2.73;;;14.80;1.00;;;;;;5092720;28;21111;-41
2023/12/09 11:58:48;;;;;;;3.10;2.80;;;14.80;1.00;;;;;;5094363;28;20889;-42
2023/12/09 12:01:15;;;;;;;4.50;2.87;;;14.70;99.90;;;;;;5093120;28;20569;-41
2023/12/09 12:03:41;;;;;;;2.50;2.30;;;14.40;99.90;;;;;;5076562;28;20199;-42
2023/12/09 12:06:06;;;;;;;3.50;3.00;;;14.10;99.90;;;;;;5094732;28;20516;-41
2023/12/09 12:08:32;;;;;;;3.00;2.57;;;13.80;99.90;;;;;;5076735;28;20180;-44
2023/12/09 12:10:58;;;;;;;3.40;2.73;;;13.60;99.90;;;;;;5093399;28;20484;-45
2023/12/09 12:13:23;;;;;;;2.90;2.60;;;13.40;99.90;;;;;;5092332;28;20188;-42
2023/12/09 12:15:49;;;;;;;2.97;2.37;;;13.00;99.90;;;;;;5091476;28;20192;-41
2023/12/09 12:18:15;;;;;;;2.57;2.10;;;12.90;99.90;;;;;;5092019;28;20567;-40
2023/12/09 12:20:41;;;;;;;3.00;2.47;;;12.80;99.90;;;;;;5092676;28;20583;-43
2023/12/09 12:23:06;;;;;;;2.57;2.30;;;12.70;99.90;;;;;;5093395;28;20558;-45
2023/12/09 12:25:32;;;;;;;3.00;2.50;;;12.70;99.90;;;;;;5076018;28;20218;-41
2023/12/09 12:27:58;;;;;;;3.23;2.17;;;12.60;99.90;;;;;;5092829;28;20209;-42
2023/12/09 12:30:24;;;;;;;2.77;2.47;;;12.50;99.90;;;;;;5094731;28;20169;-42
2023/12/09 12:32:54;;;;;;;2.40;2.00;;;12.40;99.90;;;;;;5092612;28;20874;-43
2023/12/09 12:35:21;;;;;;;3.03;2.20;;;12.60;99.90;;;;;;5093137;28;20216;-41
2023/12/09 12:37:47;;;;;;;2.80;1.80;;;12.90;99.90;;;;;;5097262;28;20811;-42
2023/12/09 12:40:12;;;;;;;2.47;1.93;;;13.30;99.90;;;;;;5099137;28;20468;-43
2023/12/09 12:42:38;;;;;;;2.67;2.30;;;13.70;99.90;;;;;;5097939;28;20179;-41
2023/12/09 12:45:18;;;;;;;3.60;2.40;;;13.90;99.90;;;;;;5075954;28;20176;-41
2023/12/09 12:47:47;;;;;;;3.57;2.20;;;14.10;79.70;;;;;;5095509;28;20457;-43
2023/12/09 12:50:16;;;;;;;2.87;2.10;;;14.20;26.70;;;;;;5095721;28;20842;-43
2023/12/09 12:52:44;;;;;;;2.60;2.20;;;14.10;6.70;;;;;;5062773;28;20481;-43